PST,Max TemperatureF,Mean TemperatureF,Min TemperatureF,Max Dew PointF,MeanDew PointF,Min DewpointF,Max Humidity, Mean Humidity, Min Humidity, Max Sea Level PressureIn, Mean Sea Level PressureIn, Min Sea Level PressureIn, Max VisibilityMiles, Mean VisibilityMiles, Min VisibilityMiles, Max Wind SpeedMPH, Mean Wind SpeedMPH, Max Gust SpeedMPH,PrecipitationIn, CloudCover, Events, WindDirDegrees
2013-11-1,74,63,51,53,45,41,77,57,37,30.14,30.08,30.01,10,10,10,15,4,18,0.00,0,,315
2013-11-2,63,57,50,51,47,41,89,73,56,30.03,29.99,29.93,10,9,2,28,13,33,0.00,3,,284
2013-11-3,63,55,47,45,41,34,77,56,34,30.06,29.99,29.94,10,10,10,22,9,24,0.00,4,,277
2013-11-4,67,56,44,43,39,32,80,56,31,30.07,30.00,29.94,10,10,10,23,9,28,0.00,0,,286
2013-11-5,71,61,50,45,38,29,66,44,22,30.22,30.16,30.08,10,10,10,15,4,17,0.00,1,,279
2013-11-6,70,61,51,49,42,36,72,52,31,30.26,30.21,30.16,10,10,9,5,0,6,0.00,5,,68
2013-11-7,71,64,56,51,46,40,80,61,42,30.18,30.13,30.09,10,10,9,22,8,26,0.00,4,,284
2013-11-8,70,60,50,53,48,40,100,72,43,30.10,30.05,29.98,10,7,0,24,8,26,0.00,2,Fog,269
2013-11-9,66,57,48,53,47,40,80,64,48,30.05,30.01,29.97,10,10,9,12,3,14,0.00,1,,334
2013-11-10,64,58,51,51,48,45,83,72,60,30.13,30.09,30.04,10,10,9,13,5,16,0.00,3,,269
2013-11-11,62,58,54,51,49,46,83,72,60,30.17,30.13,30.09,10,9,6,12,5,15,0.00,7,,76
2013-11-12,70,64,57,53,50,46,77,62,47,30.27,30.23,30.17,10,10,10,18,7,22,T,4,,312
2013-11-13,68,60,52,55,51,47,93,77,60,30.25,30.18,30.12,10,10,9,23,8,26,0.00,3,Fog,303
2013-11-14,61,56,51,52,49,45,96,84,71,30.13,30.03,29.90,10,10,8,29,13,37,0.00,5,,266
2013-11-15,65,58,50,46,44,41,83,66,48,29.89,29.82,29.76,10,10,10,35,12,40,0.00,1,,268
2013-11-16,62,56,49,50,46,42,83,67,51,29.94,29.86,29.79,10,10,10,26,14,35,0.00,2,,273
2013-11-17,63,56,49,49,45,42,89,69,48,30.10,30.03,29.94,10,10,10,13,6,16,0.00,4,,245
2013-11-18,60,53,46,46,44,40,82,69,55,30.16,30.12,30.10,10,10,10,15,5,18,0.00,5,,199
2013-11-19,61,58,54,55,50,45,93,80,66,30.10,30.03,29.95,10,9,6,14,7,16,0.28,7,Rain,131
2013-11-20,59,55,51,56,53,47,93,90,86,29.94,29.90,29.85,10,9,4,22,7,24,0.63,7,Rain,239
2013-11-21,62,56,50,49,42,32,93,64,35,29.99,29.94,29.91,10,10,9,32,11,39,T,5,Rain,349
2013-11-22,69,63,57,39,32,25,40,30,19,30.03,29.97,29.91,10,10,10,26,14,32,0.00,1,,47
2013-11-23,65,58,50,45,38,31,71,50,28,30.11,30.04,29.97,10,10,10,22,5,32,0.00,0,,79
2013-11-24,60,53,45,49,43,39,86,70,53,30.26,30.19,30.12,10,10,10,9,3,10,0.00,0,,319
2013-11-25,61,53,44,46,43,38,86,70,53,30.33,30.28,30.25,10,10,9,7,2,10,0.00,1,,180
2013-11-26,62,55,47,47,44,39,86,65,43,30.27,30.16,30.04,10,9,6,7,2,8,0.00,5,,100
2013-11-27,62,55,48,49,45,41,86,69,52,30.03,29.92,29.85,10,9,7,7,1,7,0.00,5,,137
2013-11-28,66,58,49,51,44,37,83,64,44,30.08,29.96,29.88,10,9,7,16,4,18,0.00,3,,280
2013-11-29,62,54,46,51,45,38,77,70,63,30.22,30.15,30.09,10,10,9,24,3,28,0.00,0,Fog,316
2013-11-30,63,54,45,51,47,41,93,79,65,30.28,30.25,30.19,10,6,0,15,4,20,0.00,3,Fog,303